Terminal Aerodrome Forecast
Issued by NWS Boston, MA

Home | Current Version | Previous Version | Text Only | Print | Product List | Glossary On
Versions: 1 2 3 4 5 6 7 8 9 10 11 12 13 14 15 16 17 18 19 20 21 22 23 24 25 26 27 28 29 30 31 32 33 34 35 36 37 38 39 40
000
FTUS41 KBOX 230401 AAC
TAFORH
TAF AMD
KORH 230401Z 2304/2324 00000KT 1/4SM FG VV002
     FM231100 VRB03KT 1/2SM FG OVC001
     FM231300 20004KT 3SM BR BKN020
     FM231400 19008KT P6SM BKN040
     FM232200 18008KT P6SM BKN030=

USA.gov is the U.S. government's official web portal to all federal, state and local government web resources and services.